Time;durP1;ratioP1;P1;durP2;ratioP2;P2;SDS_P1;SDS_P2;PMS_P1;PMS_P2;Temp;Humidity;BMP_temperature;BMP_pressure;BME280_temperature;BME280_humidity;BME280_pressure;Samples;Min_cycle;Max_cycle;Signal;HPM_P1;HPM_P2
2022/08/11 00:01:29;;;;;;;4.60;2.05;;;23.00;69.00;;;;;;4064629;29;20040;-65
2022/08/11 00:03:31;;;;;;;2.38;1.50;;;23.00;69.10;;;;;;4065170;29;20039;-66
2022/08/11 00:05:53;;;;;;;1.55;1.30;;;23.00;69.00;;;;;;4065543;29;20044;-65
2022/08/11 00:07:56;;;;;;;2.60;1.65;;;23.00;69.10;;;;;;4065620;29;20028;-65
2022/08/11 00:09:58;;;;;;;1.77;1.35;;;23.00;69.10;;;;;;4066154;29;20119;-65
2022/08/11 00:12:00;;;;;;;2.00;1.45;;;23.00;69.20;;;;;;4065044;29;20125;-65
2022/08/11 00:14:02;;;;;;;1.52;1.40;;;23.00;69.10;;;;;;4065301;29;20039;-66
2022/08/11 00:16:21;;;;;;;5.30;1.70;;;23.10;69.20;;;;;;4065352;29;20044;-65
2022/08/11 00:18:22;;;;;;;3.20;1.88;;;23.10;69.40;;;;;;4049159;29;20453;-65
2022/08/11 00:20:30;;;;;;;2.17;1.55;;;23.10;69.30;;;;;;4065433;29;20039;-65
2022/08/11 00:22:32;;;;;;;3.05;1.45;;;23.10;69.20;;;;;;4064048;29;20040;-65
2022/08/11 00:24:35;;;;;;;4.47;1.52;;;23.10;69.50;;;;;;4065977;29;20039;-65
2022/08/11 00:26:36;;;;;;;2.78;1.50;;;23.20;70.10;;;;;;4065324;29;20035;-64
2022/08/11 00:28:37;;;;;;;2.13;1.33;;;23.20;70.10;;;;;;4065742;29;20116;-65
2022/08/11 00:30:39;;;;;;;2.53;1.40;;;23.20;69.80;;;;;;4065393;29;20379;-65
2022/08/11 00:32:51;;;;;;;2.25;1.50;;;23.30;69.50;;;;;;4063085;29;20492;-65
2022/08/11 00:34:53;;;;;;;2.70;1.60;;;23.30;69.50;;;;;;4065491;29;20040;-65
2022/08/11 00:37:02;;;;;;;2.20;1.40;;;23.30;69.90;;;;;;4064997;29;20122;-65
2022/08/11 00:39:05;;;;;;;2.17;1.23;;;23.30;70.10;;;;;;4065604;29;20111;-64
2022/08/11 00:41:33;;;;;;;3.40;1.60;;;23.30;70.00;;;;;;4064301;29;20066;-65
2022/08/11 00:43:53;;;;;;;3.15;1.50;;;23.30;69.90;;;;;;4064295;29;20032;-65
2022/08/11 00:46:09;;;;;;;1.48;1.30;;;23.40;70.40;;;;;;4065050;29;20028;-65
2022/08/11 00:48:14;;;;;;;4.03;1.30;;;23.40;70.80;;;;;;4062076;29;20028;-65
2022/08/11 00:50:28;;;;;;;2.28;1.35;;;23.50;70.10;;;;;;4064657;29;20096;-65
2022/08/11 00:52:54;;;;;;;3.47;1.33;;;23.50;70.00;;;;;;4064161;29;20025;-65
2022/08/11 00:55:24;;;;;;;2.35;1.40;;;23.50;68.40;;;;;;4061404;29;20122;-65
2022/08/11 00:57:36;;;;;;;1.45;1.23;;;23.40;68.50;;;;;;4065460;29;20051;-65
2022/08/11 01:00:01;;;;;;;1.38;1.25;;;23.40;68.70;;;;;;4065310;29;20032;-65
2022/08/11 01:02:18;;;;;;;4.15;1.38;;;23.40;69.20;;;;;;4063820;29;20040;-65
2022/08/11 01:04:53;;;;;;;1.48;1.20;;;23.50;69.50;;;;;;4064176;29;20040;-65
2022/08/11 01:07:26;;;;;;;2.55;1.50;;;23.50;68.90;;;;;;4045738;29;20040;-65
2022/08/11 01:09:48;;;;;;;2.65;1.70;;;23.50;69.50;;;;;;4064834;29;20043;-64
2022/08/11 01:12:04;;;;;;;2.43;1.23;;;23.40;68.60;;;;;;4061282;29;20127;-65
2022/08/11 01:14:34;;;;;;;2.72;1.30;;;23.40;69.40;;;;;;4062859;29;20052;-65
2022/08/11 01:16:37;;;;;;;3.92;1.35;;;23.40;69.40;;;;;;4063792;29;20495;-65
2022/08/11 01:19:07;;;;;;;1.80;1.50;;;23.40;70.10;;;;;;4066381;29;20040;-65
2022/08/11 01:21:24;;;;;;;2.55;1.50;;;23.40;70.10;;;;;;4060390;29;20514;-65
2022/08/11 01:23:46;;;;;;;1.90;1.48;;;23.50;70.80;;;;;;4064013;29;20036;-65
2022/08/11 01:26:01;;;;;;;2.83;1.38;;;23.50;70.50;;;;;;4062757;29;20029;-65
2022/08/11 01:28:39;;;;;;;2.40;1.58;;;23.50;70.70;;;;;;4065031;29;20107;-65
2022/08/11 01:31:01;;;;;;;4.43;1.85;;;23.50;71.50;;;;;;4063538;29;20036;-65
2022/08/11 01:33:45;;;;;;;3.42;1.60;;;23.50;71.50;;;;;;4063569;29;20032;-65
2022/08/11 01:35:55;;;;;;;2.58;1.80;;;23.50;71.00;;;;;;4062955;29;20035;-65
2022/08/11 01:38:33;;;;;;;3.78;1.48;;;23.50;71.30;;;;;;4064848;29;20036;-65
2022/08/11 01:40:54;;;;;;;3.05;1.80;;;23.50;71.40;;;;;;4063153;29;20044;-65
2022/08/11 01:46:21;;;;;;;2.92;1.70;;;23.50;71.70;;;;;;4063779;29;20507;-65
2022/08/11 01:48:43;;;;;;;1.98;1.67;;;23.40;72.80;;;;;;4062776;29;20107;-65
2022/08/11 01:51:21;;;;;;;3.13;1.70;;;23.40;74.10;;;;;;4048456;29;20041;-65
2022/08/11 01:53:48;;;;;;;3.40;1.63;;;23.40;72.50;;;;;;4062134;29;20583;-65
2022/08/11 01:56:11;;;;;;;2.10;1.60;;;23.30;72.90;;;;;;4062215;29;20028;-65
2022/08/11 01:58:14;;;;;;;3.30;1.92;;;23.30;72.70;;;;;;4061494;29;20040;-65
2022/08/11 02:00:19;;;;;;;3.47;1.60;;;23.30;74.00;;;;;;4063524;29;20484;-65
2022/08/11 02:05:25;;;;;;;3.63;1.67;;;23.20;73.10;;;;;;4051265;29;20035;-65
2022/08/11 02:07:48;;;;;;;3.20;1.73;;;23.20;73.20;;;;;;4064235;29;20037;-65
2022/08/11 02:11:29;;;;;;;3.00;1.60;;;23.20;73.40;;;;;;4064084;29;20509;-65
2022/08/11 02:12:58;;;;;;;2.92;1.48;;;23.10;73.10;;;;;;4062978;29;20394;-65
2022/08/11 02:15:23;;;;;;;2.58;1.83;;;23.10;74.00;;;;;;4062416;29;20424;-65
2022/08/11 02:17:47;;;;;;;2.22;1.48;;;23.10;73.70;;;;;;4063728;29;20044;-65
2022/08/11 02:25:16;;;;;;;3.40;2.03;;;23.00;74.60;;;;;;4064058;29;20047;-65
2022/08/11 04:08:12;;;;;;;1.60;1.50;;;22.00;78.00;;;;;;4049612;29;20502;-65
2022/08/11 04:10:34;;;;;;;1.73;1.20;;;21.90;77.10;;;;;;4061138;29;20117;-65
2022/08/11 04:12:54;;;;;;;3.60;1.70;;;21.90;78.10;;;;;;4050821;29;20048;-64
2022/08/11 04:18:10;;;;;;;2.90;1.45;;;21.90;78.80;;;;;;4067359;29;20071;-65
2022/08/11 04:20:48;;;;;;;2.95;1.38;;;21.90;77.40;;;;;;4067286;29;20657;-65
2022/08/11 04:23:17;;;;;;;2.22;1.52;;;21.90;76.70;;;;;;4065665;29;20028;-65
2022/08/11 04:25:43;;;;;;;2.15;1.58;;;21.90;76.40;;;;;;4065235;29;20536;-65
2022/08/11 04:28:25;;;;;;;2.13;1.70;;;21.80;76.20;;;;;;4060172;29;20483;-65
2022/08/11 04:31:01;;;;;;;2.63;1.35;;;21.80;76.70;;;;;;4028501;29;20120;-65
2022/08/11 04:33:53;;;;;;;2.45;1.45;;;21.80;77.00;;;;;;4049921;29;20044;-65
2022/08/11 04:39:19;;;;;;;2.95;1.80;;;21.70;77.10;;;;;;4053470;29;20036;-65
2022/08/11 04:43:19;;;;;;;1.83;1.25;;;21.70;78.10;;;;;;4047781;29;20432;-65
2022/08/11 04:44:21;;;;;;;1.50;1.33;;;21.60;78.70;;;;;;4062240;29;20095;-64
2022/08/11 04:46:43;;;;;;;2.10;1.52;;;21.60;79.00;;;;;;4065546;29;20033;-65
2022/08/11 05:02:15;;;;;;;2.45;1.55;;;21.50;78.90;;;;;;4051477;29;20047;-64
2022/08/11 05:07:30;;;;;;;3.60;1.75;;;21.50;78.80;;;;;;4067557;29;20076;-65
2022/08/11 05:10:12;;;;;;;1.92;1.50;;;21.50;79.80;;;;;;4066109;29;20484;-64
2022/08/11 05:12:42;;;;;;;2.33;1.80;;;21.50;80.80;;;;;;4033823;29;20037;-65
2022/08/11 05:35:03;;;;;;;2.92;1.90;;;21.60;82.90;;;;;;4067382;29;20070;-67
2022/08/11 05:37:09;;;;;;;2.38;1.45;;;21.60;82.60;;;;;;4059831;29;20565;-67
2022/08/11 05:58:05;;;;;;;6.40;2.35;;;21.40;83.50;;;;;;4063829;29;20052;-67
2022/08/11 06:00:09;;;;;;;8.88;2.58;;;21.40;84.10;;;;;;4066292;29;20039;-67
2022/08/11 06:02:10;;;;;;;6.63;2.90;;;21.40;83.70;;;;;;4063533;29;20052;-67
2022/08/11 06:04:17;;;;;;;5.00;2.75;;;21.50;84.00;;;;;;4063203;29;20380;-67
2022/08/11 06:06:21;;;;;;;4.18;2.28;;;21.40;83.70;;;;;;4063802;29;20060;-67
2022/08/11 06:08:35;;;;;;;4.70;2.47;;;21.40;85.50;;;;;;4066287;29;20542;-68
2022/08/11 06:10:39;;;;;;;9.80;2.80;;;21.40;83.60;;;;;;4045761;29;20048;-67
2022/08/11 06:12:41;;;;;;;5.07;2.45;;;21.50;84.20;;;;;;4065567;29;20373;-67
2022/08/11 06:14:44;;;;;;;6.27;3.20;;;21.50;84.30;;;;;;4063999;29;20047;-67
2022/08/11 06:16:48;;;;;;;5.85;3.00;;;21.40;83.30;;;;;;4063619;29;20060;-68
2022/08/11 06:18:49;;;;;;;5.43;3.22;;;21.50;84.20;;;;;;4064327;29;20039;-67
2022/08/11 06:20:55;;;;;;;5.50;2.42;;;21.50;84.50;;;;;;4062804;29;20692;-68
2022/08/11 06:23:02;;;;;;;4.57;2.83;;;21.60;84.30;;;;;;4063357;29;20047;-67
2022/08/11 06:25:05;;;;;;;6.00;2.75;;;21.60;84.90;;;;;;4065498;29;20421;-67
2022/08/11 06:27:07;;;;;;;7.05;2.70;;;21.70;84.20;;;;;;4062822;29;20040;-68
2022/08/11 06:29:10;;;;;;;6.97;3.28;;;21.70;83.20;;;;;;4066008;29;20044;-68
2022/08/11 06:31:13;;;;;;;5.63;2.80;;;21.80;83.00;;;;;;4064506;29;20444;-68
2022/08/11 06:33:28;;;;;;;8.73;2.70;;;21.90;81.20;;;;;;4064000;29;20043;-68
2022/08/11 06:35:44;;;;;;;5.45;2.78;;;22.00;79.40;;;;;;4065267;29;20459;-68
2022/08/11 06:38:14;;;;;;;5.97;2.35;;;22.30;77.70;;;;;;4067648;29;20047;-68
2022/08/11 06:40:26;;;;;;;5.50;2.35;;;22.60;77.70;;;;;;4068356;29;20040;-68
2022/08/11 06:42:33;;;;;;;4.35;2.45;;;23.10;74.40;;;;;;4058374;29;20043;-67
2022/08/11 06:45:00;;;;;;;4.32;2.55;;;23.50;74.00;;;;;;4061184;29;20029;-68
2022/08/11 06:47:08;;;;;;;9.73;2.10;;;24.00;74.70;;;;;;4059947;29;20087;-67
2022/08/11 06:51:37;;;;;;;6.93;2.53;;;24.80;71.10;;;;;;4060899;29;20107;-68
2022/08/11 06:53:57;;;;;;;6.07;2.22;;;25.20;69.30;;;;;;4057667;29;20044;-68
2022/08/11 07:00:40;;;;;;;4.93;2.30;;;25.90;65.80;;;;;;4054883;29;20067;-68
2022/08/11 07:03:08;;;;;;;6.93;2.80;;;26.30;66.10;;;;;;4060856;29;20182;-68
2022/08/11 07:05:36;;;;;;;6.72;2.50;;;26.50;63.70;;;;;;4064253;29;20471;-68
2022/08/11 07:17:48;;;;;;;6.20;2.63;;;27.60;60.60;;;;;;4064837;29;20051;-69
2022/08/11 07:29:42;;;;;;;4.88;2.95;;;27.80;60.80;;;;;;4064178;29;20115;-69
2022/08/11 07:31:49;;;;;;;5.28;2.70;;;27.90;59.80;;;;;;4062762;29;20047;-69
2022/08/11 07:33:54;;;;;;;6.15;3.35;;;28.10;63.30;;;;;;4065353;29;20079;-69
2022/08/11 07:35:58;;;;;;;4.47;2.55;;;28.10;59.50;;;;;;4063770;29;20048;-68
2022/08/11 07:38:11;;;;;;;4.88;2.90;;;28.30;59.90;;;;;;4065533;29;20048;-68
2022/08/11 07:40:12;;;;;;;8.15;3.22;;;28.40;58.20;;;;;;4064517;29;20044;-69
2022/08/11 07:42:15;;;;;;;4.50;2.42;;;28.40;58.20;;;;;;4062730;29;20440;-69
2022/08/11 07:44:16;;;;;;;4.63;2.30;;;28.40;58.10;;;;;;4063241;29;20032;-69
2022/08/11 07:53:21;;;;;;;4.65;2.33;;;28.90;58.10;;;;;;4061616;29;20020;-65
2022/08/11 07:55:26;;;;;;;3.53;2.30;;;29.00;58.50;;;;;;4059727;29;20048;-67
2022/08/11 08:18:36;;;;;;;5.07;2.05;;;29.70;55.60;;;;;;4044710;29;20463;-66
2022/08/11 08:20:44;;;;;;;4.95;2.25;;;29.90;56.00;;;;;;4044948;29;20036;-66
2022/08/11 08:22:49;;;;;;;4.78;2.08;;;29.90;54.80;;;;;;4059362;29;20043;-66
2022/08/11 08:24:50;;;;;;;4.68;2.42;;;30.00;54.70;;;;;;4061632;29;20068;-66
2022/08/11 08:26:57;;;;;;;3.40;2.33;;;30.10;54.80;;;;;;4061989;29;20063;-68
2022/08/11 08:31:21;;;;;;;4.05;2.40;;;30.20;54.30;;;;;;4060713;29;20028;-66
2022/08/11 08:33:30;;;;;;;4.15;2.08;;;30.20;54.20;;;;;;4061284;29;20506;-66
2022/08/11 08:35:32;;;;;;;3.13;2.10;;;30.30;54.10;;;;;;4061526;29;20135;-66
2022/08/11 08:37:33;;;;;;;9.07;2.55;;;30.30;54.20;;;;;;4061223;29;20067;-66
2022/08/11 08:39:36;;;;;;;5.07;2.75;;;30.40;54.30;;;;;;4061310;29;20108;-66
2022/08/11 08:41:38;;;;;;;4.95;2.28;;;30.40;54.60;;;;;;4061811;29;20044;-66
2022/08/11 08:43:39;;;;;;;4.90;2.53;;;30.40;54.40;;;;;;4061084;29;20139;-66
2022/08/11 08:45:41;;;;;;;5.18;2.35;;;30.50;54.30;;;;;;4061465;29;20056;-66
2022/08/11 08:47:47;;;;;;;3.13;2.03;;;30.50;53.30;;;;;;4060571;29;20078;-65
2022/08/11 08:49:54;;;;;;;4.28;2.20;;;30.50;53.00;;;;;;4059027;29;20183;-66
2022/08/11 08:52:04;;;;;;;4.32;2.38;;;30.60;54.20;;;;;;4058606;29;20040;-66
2022/08/11 08:54:11;;;;;;;4.10;2.25;;;30.60;54.30;;;;;;4060880;29;20515;-66
2022/08/11 08:56:12;;;;;;;4.43;2.45;;;30.60;52.60;;;;;;4061202;29;20052;-65
2022/08/11 08:58:15;;;;;;;5.25;2.33;;;30.60;53.00;;;;;;4063549;29;20051;-66
2022/08/11 09:00:17;;;;;;;3.83;2.20;;;30.40;52.80;;;;;;4061675;29;20052;-65
2022/08/11 09:02:22;;;;;;;5.07;2.38;;;30.30;54.40;;;;;;4064190;29;20032;-66
2022/08/11 09:04:25;;;;;;;4.43;2.22;;;30.40;53.80;;;;;;4059290;29;20518;-66
2022/08/11 09:06:30;;;;;;;3.92;2.40;;;30.40;53.20;;;;;;4061453;29;20055;-66
2022/08/11 09:08:32;;;;;;;3.35;2.05;;;30.50;55.70;;;;;;4061526;29;20048;-66
2022/08/11 09:10:33;;;;;;;4.03;2.60;;;30.50;53.80;;;;;;4061320;29;20202;-65
2022/08/11 09:12:37;;;;;;;4.45;2.30;;;30.60;54.10;;;;;;4059101;29;20131;-65
2022/08/11 09:16:59;;;;;;;5.85;2.17;;;30.80;54.30;;;;;;4060827;29;20055;-66
2022/08/11 09:19:01;;;;;;;3.58;2.25;;;30.90;54.30;;;;;;4061271;29;20048;-66
2022/08/11 09:21:02;;;;;;;3.40;2.33;;;30.90;53.80;;;;;;4061010;29;20131;-66
2022/08/11 09:27:47;;;;;;;3.40;1.80;;;31.10;52.70;;;;;;4061142;29;20118;-66
2022/08/11 09:29:48;;;;;;;4.15;2.38;;;31.20;53.00;;;;;;4060808;29;20052;-65
2022/08/11 09:31:51;;;;;;;2.92;1.90;;;31.20;53.00;;;;;;4060965;29;20448;-66
2022/08/11 09:33:54;;;;;;;5.97;2.50;;;31.30;51.90;;;;;;4060932;29;20043;-66
2022/08/11 09:35:56;;;;;;;8.55;2.45;;;31.20;51.80;;;;;;4059842;29;20028;-66
2022/08/11 09:40:29;;;;;;;3.95;2.53;;;31.20;51.50;;;;;;4045018;29;20036;-66
2022/08/11 09:44:51;;;;;;;3.63;2.30;;;31.00;51.00;;;;;;4043439;29;20044;-65
2022/08/11 09:46:56;;;;;;;5.22;2.42;;;31.00;52.80;;;;;;4061688;29;20130;-66
2022/08/11 09:48:59;;;;;;;3.80;1.80;;;31.00;51.20;;;;;;4061396;29;20028;-65
2022/08/11 09:51:01;;;;;;;5.88;2.30;;;31.00;52.10;;;;;;4062364;29;20036;-65
2022/08/11 09:53:04;;;;;;;5.50;2.22;;;31.10;52.70;;;;;;4063918;29;20090;-65
2022/08/11 09:55:09;;;;;;;2.97;1.80;;;31.20;54.30;;;;;;4063716;29;20407;-65
2022/08/11 09:59:31;;;;;;;4.72;2.08;;;31.40;49.20;;;;;;4050311;29;20047;-65
2022/08/11 10:01:51;;;;;;;3.05;2.15;;;31.50;51.80;;;;;;4047848;29;20127;-66
2022/08/11 10:04:15;;;;;;;3.58;2.08;;;31.50;52.40;;;;;;4047614;29;20032;-66
2022/08/11 10:08:39;;;;;;;2.95;2.33;;;31.70;52.30;;;;;;4052224;29;20040;-66
2022/08/11 10:10:40;;;;;;;4.50;2.42;;;31.80;51.40;;;;;;4047670;29;20048;-66
2022/08/11 10:12:47;;;;;;;3.77;2.07;;;31.80;47.80;;;;;;4044765;29;20445;-65
2022/08/11 10:17:14;;;;;;;3.10;2.20;;;31.80;49.20;;;;;;4066616;29;20112;-66
2022/08/11 10:19:18;;;;;;;6.28;2.60;;;31.80;50.40;;;;;;4063378;29;20479;-66
2022/08/11 10:21:40;;;;;;;5.68;2.83;;;31.80;48.20;;;;;;4062813;29;20070;-65
2022/08/11 10:28:22;;;;;;;4.93;2.72;;;31.80;48.20;;;;;;4061821;29;20495;-66
2022/08/11 10:35:15;;;;;;;4.32;2.55;;;31.90;49.00;;;;;;4050890;29;20063;-66
2022/08/11 10:37:19;;;;;;;2.95;2.20;;;31.90;48.80;;;;;;4060963;29;20071;-66
2022/08/11 10:39:20;;;;;;;4.18;2.30;;;31.90;47.90;;;;;;4060614;29;20036;-66
2022/08/11 10:43:42;;;;;;;2.50;1.95;;;31.80;49.40;;;;;;4062327;29;20565;-66
2022/08/11 10:48:05;;;;;;;2.38;1.73;;;31.80;49.00;;;;;;4063380;29;20044;-66
2022/08/11 10:59:33;;;;;;;4.20;2.10;;;31.70;47.10;;;;;;4060450;29;20051;-66
2022/08/11 11:01:37;;;;;;;3.75;2.15;;;31.70;47.00;;;;;;4059041;29;20040;-65
2022/08/11 11:03:39;;;;;;;2.65;1.73;;;31.70;48.20;;;;;;4058966;29;20043;-65
2022/08/11 11:05:40;;;;;;;2.15;1.80;;;31.80;54.50;;;;;;4061782;29;20056;-65
2022/08/11 11:07:43;;;;;;;2.67;1.77;;;32.00;48.70;;;;;;4053045;29;20495;-65
2022/08/11 11:09:52;;;;;;;3.20;2.38;;;32.00;46.30;;;;;;4063594;29;20032;-66
2022/08/11 11:19:05;;;;;;;4.25;2.47;;;32.00;46.00;;;;;;4046528;29;20041;-65
2022/08/11 11:21:08;;;;;;;4.72;1.98;;;31.80;46.10;;;;;;4047444;29;20040;-65
2022/08/11 11:23:20;;;;;;;2.80;1.92;;;31.70;46.50;;;;;;4044208;29;20044;-66
2022/08/11 11:25:34;;;;;;;2.95;1.80;;;31.70;47.30;;;;;;4069681;29;20095;-66
2022/08/11 11:27:55;;;;;;;1.92;1.55;;;31.70;46.70;;;;;;4054952;29;20033;-66
2022/08/11 11:30:06;;;;;;;2.70;1.83;;;31.80;47.00;;;;;;4067193;29;20040;-66
2022/08/11 11:32:32;;;;;;;4.57;1.90;;;31.80;46.10;;;;;;4065596;29;20032;-65
2022/08/11 11:34:42;;;;;;;2.78;2.10;;;31.80;48.20;;;;;;4064311;29;20492;-66
2022/08/11 11:36:47;;;;;;;2.47;1.80;;;31.70;46.50;;;;;;4064682;29;20052;-66
2022/08/11 11:38:48;;;;;;;2.95;2.03;;;31.70;46.20;;;;;;4059182;29;20447;-67
2022/08/11 11:41:23;;;;;;;2.13;1.70;;;31.70;46.30;;;;;;4049507;29;20061;-67
2022/08/11 11:43:10;;;;;;;2.00;1.70;;;31.70;47.30;;;;;;4049321;29;20040;-66
2022/08/11 11:45:15;;;;;;;3.65;2.03;;;31.80;47.20;;;;;;4054821;29;20440;-68
2022/08/11 11:47:21;;;;;;;5.05;2.13;;;31.90;48.70;;;;;;4056998;29;20036;-66
2022/08/11 11:49:26;;;;;;;1.83;1.60;;;31.80;45.90;;;;;;4054797;29;20025;-66
2022/08/11 11:51:26;;;;;;;2.58;1.90;;;31.90;47.10;;;;;;4054804;29;20805;-66
2022/08/11 11:53:27;;;;;;;3.50;1.98;;;32.00;47.00;;;;;;4047323;29;20048;-66
2022/08/11 11:55:29;;;;;;;2.70;2.03;;;31.90;46.30;;;;;;4048623;29;20488;-66
2022/08/11 12:02:15;;;;;;;3.00;1.60;;;32.20;46.10;;;;;;4018416;29;20570;-65
2022/08/11 12:04:18;;;;;;;3.47;2.28;;;32.20;48.40;;;;;;4036618;29;20049;-66
2022/08/11 12:06:21;;;;;;;3.65;1.92;;;32.10;45.30;;;;;;4030722;29;20061;-66
2022/08/11 12:08:24;;;;;;;2.50;1.98;;;32.20;45.70;;;;;;4051266;29;20511;-66
2022/08/11 12:10:25;;;;;;;;;;;32.20;45.80;;;;;;4054327;29;20050;-66
2022/08/11 12:14:45;;;;;;;1.92;1.73;;;32.30;45.10;;;;;;4044765;29;20111;-66
2022/08/11 12:16:47;;;;;;;4.45;2.00;;;32.30;45.10;;;;;;4046766;29;20049;-66
2022/08/11 12:18:55;;;;;;;1.90;1.63;;;32.20;45.50;;;;;;4050732;29;20037;-66
2022/08/11 12:20:57;;;;;;;2.50;1.77;;;32.20;45.50;;;;;;4046400;29;20044;-66
2022/08/11 12:27:36;;;;;;;3.15;1.80;;;32.20;48.00;;;;;;4044054;29;20101;-66
2022/08/11 12:29:37;;;;;;;5.28;1.83;;;32.30;45.00;;;;;;4045517;29;20036;-66
2022/08/11 12:31:39;;;;;;;4.13;1.98;;;32.30;45.00;;;;;;4046640;29;21268;-66
2022/08/11 12:33:40;;;;;;;2.45;1.80;;;32.30;44.00;;;;;;4050390;29;20035;-66
2022/08/11 12:35:42;;;;;;;2.35;1.60;;;32.20;45.00;;;;;;4047852;29;20028;-66
2022/08/11 12:37:48;;;;;;;2.40;1.63;;;32.20;44.60;;;;;;4044282;29;20353;-66
2022/08/11 12:46:58;;;;;;;2.63;1.98;;;32.40;45.70;;;;;;4060096;29;20111;-70
2022/08/11 12:51:57;;;;;;;2.60;1.90;;;32.30;44.80;;;;;;4063700;29;20040;-66
2022/08/11 12:54:05;;;;;;;3.47;2.28;;;32.30;45.40;;;;;;4061341;29;20059;-66
2022/08/11 12:58:28;;;;;;;2.72;1.80;;;32.00;45.20;;;;;;4060141;29;20079;-66
2022/08/11 13:05:14;;;;;;;2.50;1.90;;;32.20;44.20;;;;;;4062165;29;20028;-67
2022/08/11 13:07:16;;;;;;;4.55;2.00;;;32.10;44.70;;;;;;4061481;29;20459;-66
2022/08/11 13:09:18;;;;;;;3.47;1.83;;;32.20;45.60;;;;;;4062871;29;20035;-66
2022/08/11 13:13:42;;;;;;;4.18;2.40;;;32.30;45.20;;;;;;4060730;29;20039;-66
2022/08/11 13:15:45;;;;;;;3.38;2.55;;;32.20;43.90;;;;;;4060752;29;20349;-66
2022/08/11 13:17:48;;;;;;;3.35;2.15;;;32.20;43.90;;;;;;4060153;29;20040;-66
2022/08/11 13:19:49;;;;;;;6.75;2.20;;;32.20;44.80;;;;;;4061572;29;20571;-66
2022/08/11 13:21:51;;;;;;;3.90;2.00;;;32.20;44.20;;;;;;4061027;29;20040;-66
2022/08/11 13:23:54;;;;;;;2.85;2.00;;;32.30;44.30;;;;;;4063713;29;20073;-66
2022/08/11 13:25:55;;;;;;;2.97;1.85;;;32.30;44.10;;;;;;4063469;29;20050;-66
2022/08/11 13:27:57;;;;;;;1.92;1.67;;;32.20;44.20;;;;;;4061523;29;20116;-67
2022/08/11 13:32:19;;;;;;;2.17;1.90;;;32.30;44.60;;;;;;4062250;29;20377;-66
2022/08/11 13:34:21;;;;;;;10.02;2.33;;;32.30;44.30;;;;;;4064277;29;20036;-66
2022/08/11 13:36:27;;;;;;;3.05;2.28;;;32.10;44.00;;;;;;4062131;29;20835;-66
2022/08/11 13:38:28;;;;;;;7.97;2.03;;;32.00;44.00;;;;;;4066366;29;20072;-66
2022/08/11 13:40:30;;;;;;;3.05;2.08;;;32.10;43.50;;;;;;4068795;29;20031;-66
2022/08/11 13:42:31;;;;;;;6.80;2.47;;;32.00;44.20;;;;;;4068387;29;20031;-66
2022/08/11 13:44:34;;;;;;;2.63;2.00;;;32.00;44.80;;;;;;4069806;29;20403;-66
2022/08/11 13:46:36;;;;;;;6.63;2.58;;;32.00;44.20;;;;;;4066834;29;20082;-64
2022/08/11 13:48:37;;;;;;;3.80;2.05;;;31.90;44.10;;;;;;4068190;29;20032;-66
2022/08/11 13:52:57;;;;;;;3.55;1.90;;;31.90;44.50;;;;;;4068361;29;21168;-65
2022/08/11 13:54:58;;;;;;;4.80;2.03;;;32.00;44.60;;;;;;4065827;29;20039;-65
2022/08/11 13:57:06;;;;;;;4.18;1.85;;;31.90;44.00;;;;;;4070831;29;20044;-65
2022/08/11 13:59:07;;;;;;;2.33;1.88;;;31.90;43.80;;;;;;4069512;29;20506;-64
2022/08/11 14:01:08;;;;;;;3.85;1.92;;;32.00;44.90;;;;;;4069601;29;20028;-65
2022/08/11 14:03:11;;;;;;;2.28;1.73;;;32.00;44.20;;;;;;4070822;29;20118;-65
2022/08/11 14:05:21;;;;;;;;;;;32.10;44.20;;;;;;4062665;29;20051;-65
2022/08/11 14:07:33;;;;;;;3.90;1.98;;;32.10;44.60;;;;;;4076615;29;19927;-65
2022/08/11 14:09:38;;;;;;;4.80;2.20;;;32.10;45.00;;;;;;4068758;29;20388;-65
2022/08/11 14:14:03;;;;;;;4.18;2.53;;;32.00;44.90;;;;;;4067672;29;20488;-64
2022/08/11 14:16:11;;;;;;;3.10;2.22;;;31.90;44.20;;;;;;4068401;29;20028;-65
2022/08/11 14:18:19;;;;;;;10.43;2.00;;;31.80;44.70;;;;;;4065281;29;20066;-64
2022/08/11 14:20:21;;;;;;;2.03;1.67;;;31.80;44.50;;;;;;4071169;29;20114;-64
2022/08/11 14:22:22;;;;;;;3.37;2.00;;;31.90;45.20;;;;;;4070419;29;20047;-64
2022/08/11 14:24:23;;;;;;;4.95;2.10;;;31.90;45.50;;;;;;4070896;29;20426;-64
2022/08/11 14:26:27;;;;;;;3.63;2.22;;;31.80;44.70;;;;;;4078022;28;20457;-65
2022/08/11 14:28:32;;;;;;;2.90;1.75;;;31.80;44.50;;;;;;4063272;29;20118;-65
2022/08/11 14:32:53;;;;;;;2.25;1.90;;;31.80;45.20;;;;;;4071918;29;20051;-65
2022/08/11 14:34:55;;;;;;;2.92;1.85;;;31.70;44.80;;;;;;4068751;29;20036;-65
2022/08/11 14:37:02;;;;;;;3.40;2.20;;;31.70;45.30;;;;;;4067616;29;20127;-65
2022/08/11 14:39:10;;;;;;;2.85;2.05;;;31.70;44.50;;;;;;4062369;29;20039;-65
2022/08/11 14:48:10;;;;;;;3.88;1.90;;;31.80;45.30;;;;;;4067494;29;20039;-65
2022/08/11 14:50:14;;;;;;;4.28;2.15;;;31.80;45.00;;;;;;4061588;29;20043;-66
2022/08/11 14:52:17;;;;;;;3.38;2.00;;;31.60;44.20;;;;;;4062679;29;20668;-65
2022/08/11 14:56:37;;;;;;;4.13;2.13;;;31.80;44.50;;;;;;4062538;29;20510;-65
2022/08/11 14:58:39;;;;;;;2.00;1.63;;;31.80;45.90;;;;;;4064047;29;20036;-66
2022/08/11 15:00:41;;;;;;;4.53;1.98;;;31.80;44.90;;;;;;4061761;29;20033;-65
2022/08/11 15:05:04;;;;;;;1.92;1.65;;;31.60;44.50;;;;;;4062021;29;20119;-65
2022/08/11 15:07:05;;;;;;;4.68;2.33;;;31.50;45.10;;;;;;4062802;29;20896;-65
2022/08/11 15:09:05;;;;;;;3.20;2.35;;;31.60;45.40;;;;;;4067233;29;20043;-65
2022/08/11 15:12:07;;;;;;;2.90;1.83;;;31.60;44.80;;;;;;4060726;29;20032;-66
2022/08/11 15:13:32;;;;;;;4.70;2.42;;;31.50;45.10;;;;;;4062487;29;20033;-65
2022/08/11 15:17:54;;;;;;;2.60;1.90;;;31.40;44.60;;;;;;4061395;29;20460;-65
2022/08/11 15:24:35;;;;;;;3.67;2.03;;;31.50;45.50;;;;;;4062652;29;20047;-65
2022/08/11 15:38:20;;;;;;;3.70;2.03;;;31.10;45.60;;;;;;4061110;29;20095;-65
2022/08/11 15:45:50;;;;;;;3.58;2.08;;;31.20;46.10;;;;;;4041698;29;20040;-66
2022/08/11 15:48:08;;;;;;;5.15;2.05;;;31.20;46.80;;;;;;4046954;29;20046;-65
2022/08/11 15:50:14;;;;;;;2.92;1.92;;;31.20;45.50;;;;;;4046488;29;20486;-65
2022/08/11 15:52:18;;;;;;;2.15;1.90;;;31.20;45.60;;;;;;4046884;29;20044;-65
2022/08/11 15:54:23;;;;;;;5.25;2.35;;;31.30;46.10;;;;;;4049165;29;20446;-65
2022/08/11 15:56:28;;;;;;;3.33;1.88;;;31.30;45.10;;;;;;4050136;29;20040;-65
2022/08/11 16:05:37;;;;;;;3.15;1.77;;;31.20;45.60;;;;;;4058255;29;20083;-65
2022/08/11 16:07:40;;;;;;;3.00;1.90;;;31.30;45.30;;;;;;4054129;29;20381;-64
2022/08/11 16:09:43;;;;;;;3.55;2.17;;;31.30;45.50;;;;;;4058963;29;20339;-64
2022/08/11 16:11:45;;;;;;;3.67;2.10;;;31.20;45.20;;;;;;4055435;29;20043;-64
2022/08/11 16:16:14;;;;;;;4.95;2.30;;;31.10;45.30;;;;;;4055961;29;19911;-65
2022/08/11 16:18:19;;;;;;;2.90;1.60;;;31.10;45.30;;;;;;4053937;29;20854;-65
2022/08/11 16:20:24;;;;;;;4.88;1.77;;;31.10;45.90;;;;;;4055797;29;20400;-66
2022/08/11 16:22:36;;;;;;;3.33;1.65;;;31.00;44.70;;;;;;4055199;29;20037;-66
2022/08/11 16:24:43;;;;;;;2.55;1.50;;;31.00;45.20;;;;;;4068407;29;20047;-67
2022/08/11 16:26:45;;;;;;;2.85;1.67;;;31.00;46.20;;;;;;4064368;29;20040;-67
2022/08/11 16:28:48;;;;;;;2.53;1.80;;;31.00;46.70;;;;;;4062905;29;20494;-67
2022/08/11 16:30:49;;;;;;;2.55;1.90;;;31.00;46.00;;;;;;4064454;29;20284;-67
2022/08/11 16:32:51;;;;;;;2.10;1.65;;;31.00;46.10;;;;;;4064134;29;20077;-67
2022/08/11 16:39:42;;;;;;;1.83;1.60;;;30.80;45.70;;;;;;4064839;29;20070;-67
2022/08/11 16:48:47;;;;;;;2.72;2.08;;;30.70;44.80;;;;;;4051690;29;20453;-64
2022/08/11 16:50:48;;;;;;;3.63;1.70;;;30.70;45.00;;;;;;4063555;29;20043;-63
2022/08/11 16:52:51;;;;;;;4.15;2.20;;;30.70;45.40;;;;;;4066252;29;20094;-64
2022/08/11 16:54:51;;;;;;;2.58;1.77;;;30.80;45.40;;;;;;4068684;29;20439;-64
2022/08/11 16:56:53;;;;;;;3.60;1.90;;;30.70;44.30;;;;;;4063554;29;20032;-64
2022/08/11 16:59:13;;;;;;;4.15;2.20;;;30.70;44.80;;;;;;4067257;29;20373;-64
2022/08/11 17:01:16;;;;;;;2.35;1.90;;;30.70;44.00;;;;;;4048829;29;20123;-64
2022/08/11 17:13:14;;;;;;;2.78;1.70;;;30.80;45.40;;;;;;4062180;29;20046;-64
2022/08/11 17:17:39;;;;;;;2.17;1.98;;;30.70;44.90;;;;;;4063894;29;20565;-64
2022/08/11 17:19:45;;;;;;;2.13;1.73;;;30.70;45.40;;;;;;4062527;29;20040;-64
2022/08/11 17:24:13;;;;;;;4.05;1.80;;;30.70;45.60;;;;;;4062510;29;20510;-64
2022/08/11 17:26:17;;;;;;;3.25;1.80;;;30.70;45.60;;;;;;4063978;29;20517;-64
2022/08/11 17:28:20;;;;;;;3.50;1.73;;;30.70;45.60;;;;;;4066725;29;20111;-64
2022/08/11 17:30:22;;;;;;;8.18;2.00;;;30.60;45.20;;;;;;4060780;29;20095;-64
2022/08/11 17:37:20;;;;;;;3.88;1.77;;;30.50;46.00;;;;;;4058750;29;20051;-64
2022/08/11 17:39:27;;;;;;;3.00;1.73;;;30.40;45.00;;;;;;4066340;29;20427;-64
2022/08/11 17:48:34;;;;;;;2.42;1.80;;;30.30;45.40;;;;;;4064211;29;20039;-64
2022/08/11 17:50:36;;;;;;;2.78;1.42;;;30.30;45.40;;;;;;4061241;29;20044;-64
2022/08/11 17:59:51;;;;;;;4.45;1.70;;;30.10;46.20;;;;;;4061635;29;20115;-64
2022/08/11 18:01:55;;;;;;;3.03;1.98;;;30.10;45.80;;;;;;4068712;29;20024;-63